createdAt,value
2022-10-24T00:01:47.188Z,2.22
2022-10-24T00:04:16.902Z,2.17
2022-10-24T00:06:45.043Z,2.50
2022-10-24T00:09:13.366Z,2.10
2022-10-24T00:11:44.251Z,2.35
2022-10-24T00:14:12.453Z,2.40
2022-10-24T00:16:40.725Z,2.08
2022-10-24T00:19:09.027Z,2.42
2022-10-24T00:21:38.558Z,2.45
2022-10-24T00:24:07.927Z,2.30
2022-10-24T00:26:36.477Z,2.53
2022-10-24T00:29:05.169Z,2.15
2022-10-24T00:31:33.712Z,2.55
2022-10-24T00:34:02.418Z,2.33
2022-10-24T00:36:30.867Z,2.28
2022-10-24T00:39:00.426Z,2.15
2022-10-24T00:41:31.400Z,2.20
2022-10-24T00:44:20.817Z,2.00
2022-10-24T00:46:52.220Z,2.17
2022-10-24T00:49:23.825Z,2.00
2022-10-24T00:51:55.453Z,2.15
2022-10-24T00:54:25.637Z,2.50
2022-10-24T00:57:04.368Z,2.13
2022-10-24T00:59:34.011Z,1.92
2022-10-24T01:02:02.257Z,2.05
2022-10-24T01:04:30.695Z,2.22
2022-10-24T01:07:10.711Z,2.28
2022-10-24T01:09:58.542Z,2.10
2022-10-24T01:12:36.322Z,1.75
2022-10-24T01:15:12.133Z,2.20
2022-10-24T01:17:46.279Z,1.80
2022-10-24T01:20:31.257Z,1.60
2022-10-24T01:23:32.847Z,1.67
2022-10-24T01:26:15.952Z,1.83
2022-10-24T01:28:54.799Z,1.60
2022-10-24T01:31:30.146Z,2.13
2022-10-24T01:34:04.154Z,1.60
2022-10-24T01:36:39.299Z,1.42
2022-10-24T01:39:14.446Z,1.60
2022-10-24T01:41:44.401Z,2.03
2022-10-24T01:44:17.877Z,1.80
2022-10-24T01:46:53.494Z,1.63
2022-10-24T01:49:24.434Z,1.63
2022-10-24T01:51:55.883Z,1.98
2022-10-24T01:54:24.563Z,1.50
2022-10-24T01:56:53.104Z,1.60
2022-10-24T01:59:45.421Z,1.70
2022-10-24T02:02:19.206Z,1.88
2022-10-24T02:04:53.367Z,1.33
2022-10-24T02:07:23.021Z,1.48
2022-10-24T02:09:55.366Z,1.55
2022-10-24T02:12:27.201Z,1.67
2022-10-24T02:15:01.181Z,1.30
2022-10-24T02:17:30.991Z,1.25
2022-10-24T02:20:00.002Z,1.40
2022-10-24T02:22:32.331Z,1.50
2022-10-24T02:25:05.408Z,1.45
2022-10-24T02:27:40.390Z,1.27
2022-10-24T02:30:12.517Z,1.33
2022-10-24T02:32:44.527Z,1.60
2022-10-24T02:35:16.076Z,1.88
2022-10-24T02:37:47.608Z,1.70
2022-10-24T02:40:18.263Z,1.23
2022-10-24T02:42:48.658Z,1.42
2022-10-24T02:45:18.344Z,1.73
2022-10-24T02:47:50.032Z,1.55
2022-10-24T02:50:18.610Z,1.58
2022-10-24T02:52:47.944Z,1.50
2022-10-24T02:55:16.493Z,1.45
2022-10-24T02:57:44.853Z,1.10
2022-10-24T03:00:14.280Z,1.45
2022-10-24T03:02:42.767Z,1.65
2022-10-24T03:05:12.602Z,1.45
2022-10-24T03:07:40.865Z,1.33
2022-10-24T03:10:09.907Z,1.40
2022-10-24T03:12:38.160Z,1.50
2022-10-24T03:15:07.220Z,1.33
2022-10-24T03:17:35.573Z,1.42
2022-10-24T03:20:04.077Z,1.35
2022-10-24T03:22:33.879Z,1.42
2022-10-24T03:25:03.831Z,1.50
2022-10-24T03:27:33.962Z,1.45
2022-10-24T03:30:02.344Z,1.55
2022-10-24T03:32:30.725Z,1.45
2022-10-24T03:34:59.170Z,1.45
2022-10-24T03:37:27.390Z,1.75
2022-10-24T03:39:57.003Z,1.70
2022-10-24T03:42:25.288Z,1.33
2022-10-24T03:44:53.412Z,1.50
2022-10-24T03:47:21.699Z,1.60
2022-10-24T03:49:50.060Z,1.70
2022-10-24T03:52:18.645Z,1.80
2022-10-24T03:54:47.155Z,1.63
2022-10-24T03:57:16.943Z,1.45
2022-10-24T03:59:45.245Z,1.63
2022-10-24T04:02:14.327Z,2.13
2022-10-24T04:04:43.100Z,1.50
2022-10-24T04:07:11.272Z,1.83
2022-10-24T04:09:39.693Z,1.45
2022-10-24T04:12:08.059Z,1.85
2022-10-24T04:14:37.777Z,1.67
2022-10-24T04:17:06.445Z,1.63
2022-10-24T04:19:34.760Z,1.65
2022-10-24T04:22:03.057Z,2.17
2022-10-24T04:24:31.302Z,2.08
2022-10-24T04:26:59.492Z,1.67
2022-10-24T04:29:27.907Z,2.13
2022-10-24T04:31:57.727Z,1.70
2022-10-24T04:34:25.925Z,1.70
2022-10-24T04:36:54.767Z,2.13
2022-10-24T04:39:23.091Z,2.03
2022-10-24T04:41:51.195Z,2.10
2022-10-24T04:44:19.425Z,2.00
2022-10-24T04:46:50.692Z,2.13
2022-10-24T04:49:21.705Z,2.08
2022-10-24T04:51:49.949Z,2.63
2022-10-24T04:54:18.109Z,2.13
2022-10-24T04:56:46.387Z,2.10
2022-10-24T04:59:14.717Z,1.90
2022-10-24T05:01:42.984Z,2.08
2022-10-24T05:04:12.634Z,2.10
2022-10-24T05:06:44.243Z,2.40
2022-10-24T05:09:13.695Z,2.10
2022-10-24T05:11:42.114Z,2.20
2022-10-24T05:14:10.349Z,2.50
2022-10-24T05:16:39.853Z,2.58
2022-10-24T05:19:08.177Z,2.75
2022-10-24T05:21:36.357Z,2.50
2022-10-24T05:24:06.205Z,2.55
2022-10-24T05:26:34.545Z,2.67
2022-10-24T05:29:03.371Z,2.50
2022-10-24T05:34:05.021Z,2.63
2022-10-24T05:36:33.217Z,2.47
2022-10-24T05:39:01.306Z,2.25
2022-10-24T05:41:31.381Z,2.50
2022-10-24T05:43:59.868Z,2.75
2022-10-24T05:46:28.149Z,2.72
2022-10-24T05:48:56.686Z,2.28
2022-10-24T05:51:25.009Z,2.60
2022-10-24T05:53:53.185Z,1.83
2022-10-24T05:56:21.525Z,1.95
2022-10-24T05:58:51.365Z,2.22
2022-10-24T06:01:19.854Z,2.00
2022-10-24T06:03:48.087Z,2.08
2022-10-24T06:06:16.537Z,1.85
2022-10-24T06:08:44.696Z,1.40
2022-10-24T06:11:14.240Z,2.35
2022-10-24T06:13:42.678Z,2.20
2022-10-24T06:16:12.989Z,2.10
2022-10-24T06:18:41.408Z,2.00
2022-10-24T06:21:10.990Z,1.90
2022-10-24T06:23:39.136Z,2.30
2022-10-24T06:26:11.167Z,2.05
2022-10-24T06:28:40.199Z,1.98
2022-10-24T06:31:08.828Z,2.28
2022-10-24T06:33:38.453Z,2.05
2022-10-24T06:36:09.483Z,2.30
2022-10-24T06:38:38.010Z,2.08
2022-10-24T06:41:10.722Z,2.00
2022-10-24T06:43:39.710Z,1.97
2022-10-24T06:46:08.704Z,1.85
2022-10-24T06:48:38.834Z,2.67
2022-10-24T06:51:07.627Z,2.13
2022-10-24T06:53:36.065Z,1.80
2022-10-24T06:56:06.700Z,1.70
2022-10-24T06:58:36.151Z,1.90
2022-10-24T07:01:10.200Z,1.83
2022-10-24T07:03:40.090Z,1.30
2022-10-24T07:06:09.436Z,1.95
2022-10-24T07:08:37.970Z,1.35
2022-10-24T07:11:06.484Z,1.60
2022-10-24T07:13:34.543Z,1.65
2022-10-24T07:16:02.880Z,1.67
2022-10-24T07:18:31.178Z,1.50
2022-10-24T07:21:05.201Z,2.15
2022-10-24T07:23:34.029Z,2.28
2022-10-24T07:26:07.581Z,1.90
2022-10-24T07:28:37.259Z,1.98
2022-10-24T07:31:06.587Z,2.20
2022-10-24T07:33:35.582Z,2.47
2022-10-24T07:36:05.728Z,2.17
2022-10-24T07:38:33.894Z,2.30
2022-10-24T07:41:05.046Z,2.45
2022-10-24T07:43:33.467Z,2.35
2022-10-24T07:48:35.247Z,2.30
2022-10-24T07:51:08.942Z,2.63
2022-10-24T07:56:09.418Z,2.63
2022-10-24T07:58:38.841Z,2.90
2022-10-24T08:01:09.052Z,2.22
2022-10-24T08:03:37.539Z,2.88
2022-10-24T08:06:08.848Z,2.75
2022-10-24T08:08:38.056Z,2.70
2022-10-24T08:11:09.816Z,2.35
2022-10-24T08:13:38.281Z,2.85
2022-10-24T08:16:08.041Z,3.00
2022-10-24T08:18:38.882Z,2.50
2022-10-24T08:21:11.521Z,2.70
2022-10-24T08:23:41.853Z,2.90
2022-10-24T08:26:12.846Z,2.55
2022-10-24T08:28:41.573Z,2.60
2022-10-24T08:31:13.387Z,2.80
2022-10-24T08:33:41.581Z,2.58
2022-10-24T08:36:20.456Z,3.05
2022-10-24T08:38:48.630Z,3.60
2022-10-24T08:41:30.227Z,3.40
2022-10-24T08:44:00.301Z,3.00
2022-10-24T08:46:44.593Z,2.78
2022-10-24T08:49:27.790Z,2.63
2022-10-24T08:52:01.541Z,2.83
2022-10-24T08:54:36.962Z,2.58
2022-10-24T08:57:06.101Z,2.33
2022-10-24T08:59:37.317Z,2.65
2022-10-24T09:02:14.787Z,2.30
2022-10-24T09:04:47.855Z,2.92
2022-10-24T09:07:20.617Z,2.88
2022-10-24T09:09:51.831Z,2.13
2022-10-24T09:12:22.563Z,2.53
2022-10-24T09:14:56.001Z,2.25
2022-10-24T09:17:26.649Z,2.33
2022-10-24T09:19:57.131Z,3.00
2022-10-24T09:22:31.713Z,2.50
2022-10-24T09:25:02.705Z,2.60
2022-10-24T09:27:35.379Z,2.42
2022-10-24T09:30:05.096Z,2.20
2022-10-24T09:32:36.490Z,2.60
2022-10-24T09:35:07.850Z,2.13
2022-10-24T09:37:44.228Z,2.08
2022-10-24T09:40:22.187Z,2.00
2022-10-24T09:42:58.044Z,2.22
2022-10-24T09:45:42.890Z,2.05
2022-10-24T09:48:26.124Z,2.58
2022-10-24T09:50:58.279Z,2.03
2022-10-24T09:53:31.594Z,2.40
2022-10-24T09:56:02.156Z,2.20
2022-10-24T09:58:34.016Z,2.40
2022-10-24T10:01:06.207Z,2.35
2022-10-24T10:03:36.259Z,2.47
2022-10-24T10:06:16.447Z,2.15
2022-10-24T10:08:51.388Z,2.20
2022-10-24T10:11:27.677Z,2.08
2022-10-24T10:13:56.070Z,2.83
2022-10-24T10:16:26.888Z,2.20
2022-10-24T10:19:04.380Z,1.95
2022-10-24T10:21:54.768Z,2.40
2022-10-24T10:24:29.457Z,2.05
2022-10-24T10:26:57.765Z,2.13
2022-10-24T10:29:26.353Z,2.13
2022-10-24T10:32:02.951Z,2.38
2022-10-24T10:34:38.442Z,2.40
2022-10-24T10:37:26.364Z,2.40
2022-10-24T10:40:17.198Z,2.67
2022-10-24T10:42:57.493Z,2.33
2022-10-24T10:45:37.203Z,2.30
2022-10-24T10:48:29.366Z,2.63
2022-10-24T10:51:08.094Z,2.65
2022-10-24T10:53:43.890Z,2.28
2022-10-24T10:56:29.443Z,1.85
2022-10-24T10:59:07.916Z,2.17
2022-10-24T11:01:48.390Z,1.92
2022-10-24T11:04:26.651Z,2.03
2022-10-24T11:07:02.680Z,1.80
2022-10-24T11:09:34.916Z,1.83
2022-10-24T11:12:10.737Z,1.92
2022-10-24T11:14:42.480Z,2.30
2022-10-24T11:17:19.166Z,2.50
2022-10-24T11:20:04.489Z,2.38
2022-10-24T11:22:38.637Z,2.03
2022-10-24T11:25:17.000Z,1.80
2022-10-24T11:27:54.562Z,2.03
2022-10-24T11:30:31.077Z,2.08
2022-10-24T11:33:02.950Z,1.63
2022-10-24T11:35:34.424Z,1.83
2022-10-24T11:38:10.006Z,1.63
2022-10-24T11:40:41.004Z,1.58
2022-10-24T11:43:17.861Z,2.10
2022-10-24T11:45:52.175Z,1.60
2022-10-24T11:48:25.275Z,1.58
2022-10-24T11:50:58.490Z,1.75
2022-10-24T11:53:49.158Z,1.80
2022-10-24T11:56:27.163Z,1.77
2022-10-24T11:59:00.872Z,2.17
2022-10-24T12:01:48.733Z,1.70
2022-10-24T12:04:40.279Z,1.80
2022-10-24T12:07:41.375Z,1.48
2022-10-24T12:10:40.116Z,1.50
2022-10-24T12:13:36.656Z,1.80
2022-10-24T12:16:16.008Z,1.20
2022-10-24T12:18:47.847Z,1.25
2022-10-24T12:21:23.399Z,1.58
2022-10-24T12:23:56.456Z,1.20
2022-10-24T12:26:29.052Z,0.95
2022-10-24T12:28:59.578Z,1.33
2022-10-24T12:31:31.670Z,0.98
2022-10-24T12:34:49.408Z,0.90
2022-10-24T12:37:35.508Z,0.98
2022-10-24T12:40:37.013Z,0.88
2022-10-24T12:43:18.026Z,1.00
2022-10-24T12:45:46.554Z,0.88
2022-10-24T12:48:35.947Z,1.23
2022-10-24T12:51:30.055Z,1.40
2022-10-24T12:56:31.679Z,1.00
2022-10-24T12:59:02.720Z,1.08
2022-10-24T13:01:35.145Z,0.80
2022-10-24T13:04:37.595Z,0.80
2022-10-24T13:07:38.537Z,1.20
2022-10-24T13:10:26.056Z,1.25
2022-10-24T13:13:16.496Z,1.10
2022-10-24T13:15:52.899Z,0.60
2022-10-24T13:18:41.458Z,0.70
2022-10-24T13:21:18.557Z,1.05
2022-10-24T13:23:49.229Z,0.98
2022-10-24T13:26:39.836Z,0.98
2022-10-24T13:29:14.600Z,1.20
2022-10-24T13:31:52.330Z,1.10
2022-10-24T13:34:45.502Z,1.20
2022-10-24T13:37:23.191Z,1.10
2022-10-24T13:39:54.147Z,1.23
2022-10-24T13:42:29.394Z,1.10
2022-10-24T13:45:01.506Z,1.02
2022-10-24T13:47:34.366Z,1.15
2022-10-24T13:50:07.592Z,1.25
2022-10-24T13:52:49.116Z,1.50
2022-10-24T13:55:25.028Z,1.58
2022-10-24T13:58:01.880Z,1.30
2022-10-24T14:00:33.017Z,1.17
2022-10-24T14:03:04.153Z,1.40
2022-10-24T14:05:38.940Z,1.67
2022-10-24T14:08:09.743Z,1.40
2022-10-24T14:10:39.718Z,1.50
2022-10-24T14:13:08.049Z,1.70
2022-10-24T14:15:36.277Z,1.75
2022-10-24T14:18:08.541Z,1.70
2022-10-24T14:20:38.916Z,1.92
2022-10-24T14:23:26.167Z,1.80
2022-10-24T14:25:56.550Z,1.83
2022-10-24T14:28:28.237Z,1.83
2022-10-24T14:30:59.563Z,1.95
2022-10-24T14:33:29.937Z,1.92
2022-10-24T14:36:00.378Z,1.83
2022-10-24T14:38:30.267Z,1.65
2022-10-24T14:41:09.087Z,1.80
2022-10-24T14:43:42.528Z,1.63
2022-10-24T14:46:28.074Z,1.38
2022-10-24T14:48:56.777Z,2.13
2022-10-24T14:51:32.882Z,1.42
2022-10-24T14:54:16.933Z,1.40
2022-10-24T14:56:45.105Z,1.50
2022-10-24T14:59:25.395Z,1.58
2022-10-24T15:01:56.638Z,1.70
2022-10-24T15:04:31.774Z,1.88
2022-10-24T15:07:13.187Z,1.90
2022-10-24T15:09:58.196Z,2.15
2022-10-24T15:12:34.689Z,1.65
2022-10-24T15:15:25.160Z,2.38
2022-10-24T15:17:54.629Z,2.20
2022-10-24T15:20:27.619Z,2.38
2022-10-24T15:22:58.099Z,2.15
2022-10-24T15:25:31.316Z,1.88
2022-10-24T15:28:00.524Z,2.10
2022-10-24T15:30:31.230Z,2.10
2022-10-24T15:33:01.277Z,2.10
2022-10-24T15:35:31.395Z,1.60
2022-10-24T15:38:03.938Z,2.00
2022-10-24T15:40:36.004Z,2.10
2022-10-24T15:43:04.403Z,2.00
2022-10-24T15:45:32.788Z,2.00
2022-10-24T15:48:00.987Z,2.33
2022-10-24T15:50:29.179Z,1.95
2022-10-24T15:53:01.938Z,1.90
2022-10-24T15:55:31.954Z,2.13
2022-10-24T15:58:01.672Z,2.00
2022-10-24T16:00:29.885Z,2.25
2022-10-24T16:03:04.636Z,1.60
2022-10-24T16:05:38.804Z,1.58
2022-10-24T16:08:07.368Z,1.15
2022-10-24T16:10:35.813Z,1.58
2022-10-24T16:13:05.385Z,1.13
2022-10-24T16:15:37.357Z,1.42
2022-10-24T16:18:06.694Z,1.30
2022-10-24T16:20:35.796Z,1.58
2022-10-24T16:23:04.738Z,1.58
2022-10-24T16:25:35.868Z,1.90
2022-10-24T16:28:07.512Z,1.65
2022-10-24T16:30:39.261Z,1.98
2022-10-24T16:33:08.228Z,1.40
2022-10-24T16:35:38.664Z,2.22
2022-10-24T16:38:08.580Z,2.22
2022-10-24T16:43:18.853Z,2.42
2022-10-24T16:45:56.873Z,0.88
2022-10-24T16:48:25.249Z,0.50
2022-10-24T16:50:53.468Z,0.80
2022-10-24T16:53:22.280Z,0.50
2022-10-24T16:55:51.350Z,0.60
2022-10-24T16:58:21.923Z,0.40
2022-10-24T17:00:50.461Z,0.57
2022-10-24T17:03:18.794Z,0.60
2022-10-24T17:05:49.914Z,0.47
2022-10-24T17:08:18.350Z,0.60
2022-10-24T17:10:46.527Z,0.50
2022-10-24T17:13:14.614Z,0.70
2022-10-24T17:15:44.416Z,0.90
2022-10-24T17:18:13.593Z,0.80
2022-10-24T17:20:44.740Z,0.85
2022-10-24T17:23:15.167Z,0.80
2022-10-24T17:25:45.762Z,0.95
2022-10-24T17:28:15.322Z,1.10
2022-10-24T17:30:45.505Z,0.98
2022-10-24T17:33:14.302Z,1.23
2022-10-24T17:35:47.622Z,1.55
2022-10-24T17:38:34.292Z,1.33
2022-10-24T17:41:11.174Z,1.83
2022-10-24T17:43:39.751Z,1.88
2022-10-24T17:46:14.197Z,1.60
2022-10-24T17:48:42.652Z,1.60
2022-10-24T17:51:12.272Z,1.50
2022-10-24T17:53:40.604Z,1.23
2022-10-24T17:56:10.184Z,1.35
2022-10-24T17:58:38.426Z,1.70
2022-10-24T18:01:06.927Z,1.33
2022-10-24T18:03:36.812Z,1.63
2022-10-24T18:06:07.575Z,1.30
2022-10-24T18:08:35.915Z,1.50
2022-10-24T18:11:05.438Z,1.48
2022-10-24T18:13:33.995Z,1.60
2022-10-24T18:16:07.900Z,1.70
2022-10-24T18:18:40.079Z,1.67
2022-10-24T18:21:10.560Z,1.15
2022-10-24T18:23:39.598Z,1.52
2022-10-24T18:26:08.828Z,1.85
2022-10-24T18:28:39.498Z,1.80
2022-10-24T18:31:09.636Z,2.20
2022-10-24T18:33:42.722Z,1.75
2022-10-24T18:36:12.781Z,2.00
2022-10-24T18:38:42.366Z,1.90
2022-10-24T18:41:35.048Z,2.28
2022-10-24T18:44:14.323Z,1.95
2022-10-24T18:46:43.397Z,2.40
2022-10-24T18:49:14.837Z,2.13
2022-10-24T18:51:50.654Z,1.88
2022-10-24T18:54:21.888Z,2.38
2022-10-24T18:56:50.786Z,3.10
2022-10-24T18:59:21.173Z,2.50
2022-10-24T19:01:56.399Z,2.45
2022-10-24T19:04:27.905Z,2.60
2022-10-24T19:06:59.749Z,2.70
2022-10-24T19:09:28.673Z,2.97
2022-10-24T19:11:57.372Z,2.92
2022-10-24T19:14:25.886Z,3.08
2022-10-24T19:16:58.377Z,3.00
2022-10-24T19:19:31.116Z,8.75
2022-10-24T19:21:59.448Z,5.87
2022-10-24T19:24:27.675Z,3.67
2022-10-24T19:26:55.846Z,3.28
2022-10-24T19:29:24.399Z,3.30
2022-10-24T19:31:52.584Z,3.35
2022-10-24T19:34:20.950Z,2.47
2022-10-24T19:36:50.980Z,2.70
2022-10-24T19:39:19.404Z,2.58
2022-10-24T19:41:47.536Z,2.55
2022-10-24T19:44:16.223Z,2.10
2022-10-24T19:46:44.451Z,2.92
2022-10-24T19:49:12.636Z,2.47
2022-10-24T19:51:41.023Z,2.20
2022-10-24T19:54:10.658Z,2.33
2022-10-24T19:56:38.909Z,2.60
2022-10-24T19:59:08.960Z,2.53
2022-10-24T20:01:38.297Z,2.75
2022-10-24T20:04:06.749Z,2.53
2022-10-24T20:06:35.356Z,2.25
2022-10-24T20:09:03.527Z,2.30
2022-10-24T20:11:33.068Z,2.70
2022-10-24T20:14:01.611Z,2.20
2022-10-24T20:16:29.799Z,4.50
2022-10-24T20:18:57.913Z,3.03
2022-10-24T20:21:26.364Z,2.60
2022-10-24T20:23:54.578Z,2.40
2022-10-24T20:26:24.937Z,2.42
2022-10-24T20:28:56.383Z,2.40
2022-10-24T20:31:27.578Z,2.42
2022-10-24T20:34:02.216Z,2.40
2022-10-24T20:36:33.747Z,2.55
2022-10-24T20:39:02.366Z,1.85
2022-10-24T20:41:30.935Z,2.13
2022-10-24T20:44:00.467Z,2.30
2022-10-24T20:46:28.992Z,2.80
2022-10-24T20:48:57.216Z,2.45
2022-10-24T20:51:25.525Z,2.67
2022-10-24T20:53:53.986Z,2.80
2022-10-24T20:56:23.634Z,2.20
2022-10-24T20:58:52.853Z,2.50
2022-10-24T21:01:24.324Z,2.90
2022-10-24T21:03:53.755Z,2.40
2022-10-24T21:06:24.112Z,2.28
2022-10-24T21:08:54.379Z,2.42
2022-10-24T21:11:25.872Z,2.40
2022-10-24T21:13:55.576Z,2.25
2022-10-24T21:16:25.540Z,2.03
2022-10-24T21:18:53.698Z,2.38
2022-10-24T21:21:22.979Z,2.20
2022-10-24T21:23:52.269Z,2.10
2022-10-24T21:26:21.561Z,2.33
2022-10-24T21:28:50.368Z,2.00
2022-10-24T21:31:20.627Z,2.22
2022-10-24T21:33:51.390Z,1.98
2022-10-24T21:36:22.893Z,2.10
2022-10-24T21:38:52.983Z,1.90
2022-10-24T21:41:24.115Z,2.00
2022-10-24T21:43:53.256Z,1.90
2022-10-24T21:46:23.160Z,1.95
2022-10-24T21:48:54.208Z,2.00
2022-10-24T21:51:24.162Z,1.77
2022-10-24T21:53:54.562Z,1.98
2022-10-24T21:56:27.941Z,2.20
2022-10-24T21:58:59.829Z,2.10
2022-10-24T22:01:30.781Z,2.08
2022-10-24T22:04:01.314Z,1.85
2022-10-24T22:06:30.746Z,2.10
2022-10-24T22:08:59.115Z,2.65
2022-10-24T22:11:29.238Z,2.47
2022-10-24T22:13:58.134Z,1.98
2022-10-24T22:16:28.908Z,2.05
2022-10-24T22:18:58.081Z,1.85
2022-10-24T22:21:29.951Z,2.10
2022-10-24T22:23:59.032Z,2.10
2022-10-24T22:26:27.844Z,2.67
2022-10-24T22:28:57.347Z,2.15
2022-10-24T22:31:26.665Z,1.90
2022-10-24T22:33:55.475Z,1.98
2022-10-24T22:36:38.329Z,2.00
2022-10-24T22:39:12.994Z,2.30
2022-10-24T22:41:41.826Z,2.30
2022-10-24T22:44:12.796Z,2.03
2022-10-24T22:46:59.617Z,2.45
2022-10-24T22:49:38.099Z,2.65
2022-10-24T22:52:11.332Z,2.47
2022-10-24T22:54:40.414Z,1.98
2022-10-24T22:57:09.619Z,2.60
2022-10-24T22:59:38.333Z,1.98
2022-10-24T23:02:18.210Z,2.45
2022-10-24T23:04:57.744Z,1.90
2022-10-24T23:07:30.022Z,1.77
2022-10-24T23:09:58.253Z,2.08
2022-10-24T23:12:27.185Z,2.38
2022-10-24T23:14:55.892Z,2.17
2022-10-24T23:17:26.370Z,2.17
2022-10-24T23:19:55.747Z,2.42
2022-10-24T23:22:27.655Z,2.00
2022-10-24T23:24:57.676Z,2.17
2022-10-24T23:27:37.751Z,2.17
2022-10-24T23:30:08.786Z,1.90
2022-10-24T23:32:39.395Z,1.92
2022-10-24T23:35:08.982Z,2.38
2022-10-24T23:37:40.992Z,1.95
2022-10-24T23:40:34.710Z,2.05
2022-10-24T23:43:05.223Z,2.30
2022-10-24T23:45:37.675Z,2.22
2022-10-24T23:48:19.638Z,2.85
2022-10-24T23:50:55.210Z,2.42
2022-10-24T23:53:44.594Z,2.08
2022-10-24T23:56:13.667Z,2.40
2022-10-24T23:58:41.752Z,2.10
